sensor_id;sensor_type;location;lat;lon;timestamp;temperature;humidity
22645;DHT22;11489;50.834;6.752;2023-04-22T00:00:19;7.90;93.10
22645;DHT22;11489;50.834;6.752;2023-04-22T00:02:44;7.90;93.20
22645;DHT22;11489;50.834;6.752;2023-04-22T00:05:11;7.90;93.20
22645;DHT22;11489;50.834;6.752;2023-04-22T00:07:39;8.00;93.30
22645;DHT22;11489;50.834;6.752;2023-04-22T00:10:06;7.90;93.20
22645;DHT22;11489;50.834;6.752;2023-04-22T00:12:35;7.90;93.20
22645;DHT22;11489;50.834;6.752;2023-04-22T00:15:01;7.90;93.20
22645;DHT22;11489;50.834;6.752;2023-04-22T00:17:27;8.00;93.30
22645;DHT22;11489;50.834;6.752;2023-04-22T00:19:52;8.00;93.30
22645;DHT22;11489;50.834;6.752;2023-04-22T00:22:21;8.00;93.30
22645;DHT22;11489;50.834;6.752;2023-04-22T00:24:47;8.00;93.30
22645;DHT22;11489;50.834;6.752;2023-04-22T00:27:13;7.90;93.20
22645;DHT22;11489;50.834;6.752;2023-04-22T00:29:47;8.00;93.30
22645;DHT22;11489;50.834;6.752;2023-04-22T00:32:13;8.00;93.30
22645;DHT22;11489;50.834;6.752;2023-04-22T00:34:39;7.90;93.30
22645;DHT22;11489;50.834;6.752;2023-04-22T00:37:04;8.00;93.40
22645;DHT22;11489;50.834;6.752;2023-04-22T00:39:30;8.00;93.40
22645;DHT22;11489;50.834;6.752;2023-04-22T00:41:59;7.90;93.40
22645;DHT22;11489;50.834;6.752;2023-04-22T00:44:26;8.00;93.40
22645;DHT22;11489;50.834;6.752;2023-04-22T00:46:52;8.00;93.40
22645;DHT22;11489;50.834;6.752;2023-04-22T00:49:19;8.00;93.50
22645;DHT22;11489;50.834;6.752;2023-04-22T00:51:44;8.00;93.50
22645;DHT22;11489;50.834;6.752;2023-04-22T00:54:10;8.00;93.50
22645;DHT22;11489;50.834;6.752;2023-04-22T00:56:37;8.00;93.50
22645;DHT22;11489;50.834;6.752;2023-04-22T00:59:03;8.00;93.50
22645;DHT22;11489;50.834;6.752;2023-04-22T01:01:29;8.00;93.50
22645;DHT22;11489;50.834;6.752;2023-04-22T01:03:56;8.00;93.50
22645;DHT22;11489;50.834;6.752;2023-04-22T01:06:23;8.00;93.50
22645;DHT22;11489;50.834;6.752;2023-04-22T01:08:49;8.00;93.50
22645;DHT22;11489;50.834;6.752;2023-04-22T01:11:15;8.00;93.50
22645;DHT22;11489;50.834;6.752;2023-04-22T01:13:41;7.90;93.50
22645;DHT22;11489;50.834;6.752;2023-04-22T01:16:07;7.90;93.50
22645;DHT22;11489;50.834;6.752;2023-04-22T01:18:34;7.90;93.50
22645;DHT22;11489;50.834;6.752;2023-04-22T01:21:01;7.90;93.50
22645;DHT22;11489;50.834;6.752;2023-04-22T01:23:27;7.90;93.50
22645;DHT22;11489;50.834;6.752;2023-04-22T01:25:55;7.90;93.60
22645;DHT22;11489;50.834;6.752;2023-04-22T01:28:22;7.90;93.60
22645;DHT22;11489;50.834;6.752;2023-04-22T01:30:48;7.90;93.60
22645;DHT22;11489;50.834;6.752;2023-04-22T01:33:15;7.90;93.60
22645;DHT22;11489;50.834;6.752;2023-04-22T01:35:40;7.90;93.60
22645;DHT22;11489;50.834;6.752;2023-04-22T01:38:08;7.90;93.60
22645;DHT22;11489;50.834;6.752;2023-04-22T01:40:34;7.90;93.60
22645;DHT22;11489;50.834;6.752;2023-04-22T01:43:00;7.90;93.60
22645;DHT22;11489;50.834;6.752;2023-04-22T01:45:26;7.90;93.70
22645;DHT22;11489;50.834;6.752;2023-04-22T01:47:52;7.90;93.70
22645;DHT22;11489;50.834;6.752;2023-04-22T01:53:40;8.00;93.80
22645;DHT22;11489;50.834;6.752;2023-04-22T01:56:06;8.00;93.80
22645;DHT22;11489;50.834;6.752;2023-04-22T01:58:32;8.00;93.80
22645;DHT22;11489;50.834;6.752;2023-04-22T02:00:58;8.00;93.90
22645;DHT22;11489;50.834;6.752;2023-04-22T02:03:24;8.00;93.90
22645;DHT22;11489;50.834;6.752;2023-04-22T02:05:49;8.00;94.10
22645;DHT22;11489;50.834;6.752;2023-04-22T02:08:15;8.00;93.90
22645;DHT22;11489;50.834;6.752;2023-04-22T02:10:40;8.00;93.90
22645;DHT22;11489;50.834;6.752;2023-04-22T02:13:06;8.10;93.90
22645;DHT22;11489;50.834;6.752;2023-04-22T02:15:32;8.10;94.00
22645;DHT22;11489;50.834;6.752;2023-04-22T02:17:57;8.10;94.00
22645;DHT22;11489;50.834;6.752;2023-04-22T02:20:24;8.10;94.00
22645;DHT22;11489;50.834;6.752;2023-04-22T02:22:50;8.10;94.00
22645;DHT22;11489;50.834;6.752;2023-04-22T02:25:15;8.10;94.00
22645;DHT22;11489;50.834;6.752;2023-04-22T02:27:45;8.20;94.00
22645;DHT22;11489;50.834;6.752;2023-04-22T02:30:11;8.20;94.00
22645;DHT22;11489;50.834;6.752;2023-04-22T02:32:36;8.20;94.00
22645;DHT22;11489;50.834;6.752;2023-04-22T02:35:04;8.20;94.00
22645;DHT22;11489;50.834;6.752;2023-04-22T02:37:30;8.30;94.10
22645;DHT22;11489;50.834;6.752;2023-04-22T02:39:56;8.30;94.10
22645;DHT22;11489;50.834;6.752;2023-04-22T02:42:21;8.30;94.10
22645;DHT22;11489;50.834;6.752;2023-04-22T02:44:47;8.30;94.10
22645;DHT22;11489;50.834;6.752;2023-04-22T02:47:13;8.40;94.20
22645;DHT22;11489;50.834;6.752;2023-04-22T02:49:38;8.40;94.20
22645;DHT22;11489;50.834;6.752;2023-04-22T02:52:04;8.40;94.20
22645;DHT22;11489;50.834;6.752;2023-04-22T02:54:30;8.50;94.20
22645;DHT22;11489;50.834;6.752;2023-04-22T02:56:55;8.40;94.20
22645;DHT22;11489;50.834;6.752;2023-04-22T02:59:22;8.50;94.30
22645;DHT22;11489;50.834;6.752;2023-04-22T03:01:50;8.50;94.20
22645;DHT22;11489;50.834;6.752;2023-04-22T03:04:16;8.50;94.20
22645;DHT22;11489;50.834;6.752;2023-04-22T03:06:41;8.60;94.20
22645;DHT22;11489;50.834;6.752;2023-04-22T03:09:07;8.60;94.10
22645;DHT22;11489;50.834;6.752;2023-04-22T03:11:33;8.60;94.10
22645;DHT22;11489;50.834;6.752;2023-04-22T03:13:58;8.60;94.10
22645;DHT22;11489;50.834;6.752;2023-04-22T03:16:24;8.60;94.20
22645;DHT22;11489;50.834;6.752;2023-04-22T03:18:50;8.60;94.20
22645;DHT22;11489;50.834;6.752;2023-04-22T03:21:16;8.70;94.20
22645;DHT22;11489;50.834;6.752;2023-04-22T03:23:41;8.70;94.30
22645;DHT22;11489;50.834;6.752;2023-04-22T03:26:07;8.80;94.30
22645;DHT22;11489;50.834;6.752;2023-04-22T03:28:32;8.80;94.30
22645;DHT22;11489;50.834;6.752;2023-04-22T03:30:58;8.80;94.30
22645;DHT22;11489;50.834;6.752;2023-04-22T03:33:24;8.80;94.40
22645;DHT22;11489;50.834;6.752;2023-04-22T03:35:50;8.80;94.40
22645;DHT22;11489;50.834;6.752;2023-04-22T03:38:15;8.90;94.40
22645;DHT22;11489;50.834;6.752;2023-04-22T03:40:42;8.90;94.40
22645;DHT22;11489;50.834;6.752;2023-04-22T03:43:08;8.90;94.40
22645;DHT22;11489;50.834;6.752;2023-04-22T03:45:33;9.00;94.50
22645;DHT22;11489;50.834;6.752;2023-04-22T03:47:59;9.00;94.40
22645;DHT22;11489;50.834;6.752;2023-04-22T03:50:25;9.00;94.40
22645;DHT22;11489;50.834;6.752;2023-04-22T03:52:50;9.00;94.30
22645;DHT22;11489;50.834;6.752;2023-04-22T03:55:16;9.10;94.30
22645;DHT22;11489;50.834;6.752;2023-04-22T03:57:42;9.10;94.30
22645;DHT22;11489;50.834;6.752;2023-04-22T04:00:07;9.10;94.30
22645;DHT22;11489;50.834;6.752;2023-04-22T04:02:33;9.10;94.30
22645;DHT22;11489;50.834;6.752;2023-04-22T04:04:59;9.10;94.30
22645;DHT22;11489;50.834;6.752;2023-04-22T04:07:26;9.10;94.20
22645;DHT22;11489;50.834;6.752;2023-04-22T04:09:52;9.10;94.20
22645;DHT22;11489;50.834;6.752;2023-04-22T04:12:17;9.10;94.20
22645;DHT22;11489;50.834;6.752;2023-04-22T04:14:43;9.10;94.20
22645;DHT22;11489;50.834;6.752;2023-04-22T04:17:09;9.10;94.30
22645;DHT22;11489;50.834;6.752;2023-04-22T04:19:37;9.10;94.30
22645;DHT22;11489;50.834;6.752;2023-04-22T04:22:03;9.10;94.30
22645;DHT22;11489;50.834;6.752;2023-04-22T04:24:29;9.10;94.30
22645;DHT22;11489;50.834;6.752;2023-04-22T04:26:54;9.10;94.30
22645;DHT22;11489;50.834;6.752;2023-04-22T04:29:22;9.10;94.30
22645;DHT22;11489;50.834;6.752;2023-04-22T04:31:48;9.10;94.30
22645;DHT22;11489;50.834;6.752;2023-04-22T04:34:14;9.10;94.30
22645;DHT22;11489;50.834;6.752;2023-04-22T04:36:40;9.10;94.30
22645;DHT22;11489;50.834;6.752;2023-04-22T04:39:06;9.10;94.30
22645;DHT22;11489;50.834;6.752;2023-04-22T04:41:34;9.10;94.30
22645;DHT22;11489;50.834;6.752;2023-04-22T04:44:05;9.10;94.30
22645;DHT22;11489;50.834;6.752;2023-04-22T04:46:31;9.10;94.30
22645;DHT22;11489;50.834;6.752;2023-04-22T04:48:58;9.10;94.30
22645;DHT22;11489;50.834;6.752;2023-04-22T04:51:24;9.10;94.30
22645;DHT22;11489;50.834;6.752;2023-04-22T04:53:51;9.10;94.20
22645;DHT22;11489;50.834;6.752;2023-04-22T04:56:16;9.10;94.20
22645;DHT22;11489;50.834;6.752;2023-04-22T04:58:42;9.10;94.20
22645;DHT22;11489;50.834;6.752;2023-04-22T05:01:07;9.10;94.30
22645;DHT22;11489;50.834;6.752;2023-04-22T05:03:33;9.10;94.30
22645;DHT22;11489;50.834;6.752;2023-04-22T05:05:59;9.10;94.30
22645;DHT22;11489;50.834;6.752;2023-04-22T05:08:24;9.10;94.40
22645;DHT22;11489;50.834;6.752;2023-04-22T05:10:50;9.20;94.50
22645;DHT22;11489;50.834;6.752;2023-04-22T05:13:16;9.20;94.60
22645;DHT22;11489;50.834;6.752;2023-04-22T05:15:41;9.20;94.60
22645;DHT22;11489;50.834;6.752;2023-04-22T05:18:07;9.30;94.70
22645;DHT22;11489;50.834;6.752;2023-04-22T05:20:33;9.30;94.80
22645;DHT22;11489;50.834;6.752;2023-04-22T05:22:58;9.40;94.80
22645;DHT22;11489;50.834;6.752;2023-04-22T05:25:24;9.40;94.90
22645;DHT22;11489;50.834;6.752;2023-04-22T05:27:50;9.40;94.90
22645;DHT22;11489;50.834;6.752;2023-04-22T05:30:16;9.50;95.00
22645;DHT22;11489;50.834;6.752;2023-04-22T05:32:42;9.60;95.10
22645;DHT22;11489;50.834;6.752;2023-04-22T05:35:11;9.60;95.10
22645;DHT22;11489;50.834;6.752;2023-04-22T05:37:39;9.70;95.10
22645;DHT22;11489;50.834;6.752;2023-04-22T05:40:06;9.80;95.20
22645;DHT22;11489;50.834;6.752;2023-04-22T05:42:34;9.90;95.20
22645;DHT22;11489;50.834;6.752;2023-04-22T05:45:00;9.90;95.20
22645;DHT22;11489;50.834;6.752;2023-04-22T05:47:26;10.00;95.20
22645;DHT22;11489;50.834;6.752;2023-04-22T05:49:55;10.10;95.10
22645;DHT22;11489;50.834;6.752;2023-04-22T05:52:20;10.20;95.10
22645;DHT22;11489;50.834;6.752;2023-04-22T05:54:46;10.30;95.10
22645;DHT22;11489;50.834;6.752;2023-04-22T05:57:12;10.30;95.00
22645;DHT22;11489;50.834;6.752;2023-04-22T05:59:38;10.30;95.00
22645;DHT22;11489;50.834;6.752;2023-04-22T06:02:06;10.40;95.00
22645;DHT22;11489;50.834;6.752;2023-04-22T06:04:32;10.40;94.90
22645;DHT22;11489;50.834;6.752;2023-04-22T06:06:58;10.50;94.90
22645;DHT22;11489;50.834;6.752;2023-04-22T06:09:24;10.50;94.80
22645;DHT22;11489;50.834;6.752;2023-04-22T06:11:50;10.60;94.80
22645;DHT22;11489;50.834;6.752;2023-04-22T06:14:15;10.60;94.80
22645;DHT22;11489;50.834;6.752;2023-04-22T06:16:41;10.70;94.80
22645;DHT22;11489;50.834;6.752;2023-04-22T06:19:07;10.70;94.80
22645;DHT22;11489;50.834;6.752;2023-04-22T06:21:32;10.80;94.90
22645;DHT22;11489;50.834;6.752;2023-04-22T06:23:59;10.90;95.00
22645;DHT22;11489;50.834;6.752;2023-04-22T06:26:25;10.90;95.00
22645;DHT22;11489;50.834;6.752;2023-04-22T06:28:51;11.00;95.20
22645;DHT22;11489;50.834;6.752;2023-04-22T06:31:17;11.10;95.40
22645;DHT22;11489;50.834;6.752;2023-04-22T06:33:43;11.30;95.50
22645;DHT22;11489;50.834;6.752;2023-04-22T06:36:09;11.40;95.60
22645;DHT22;11489;50.834;6.752;2023-04-22T06:38:35;11.50;95.50
22645;DHT22;11489;50.834;6.752;2023-04-22T06:41:00;11.70;95.40
22645;DHT22;11489;50.834;6.752;2023-04-22T06:43:26;11.80;95.20
22645;DHT22;11489;50.834;6.752;2023-04-22T06:45:52;11.90;95.10
22645;DHT22;11489;50.834;6.752;2023-04-22T06:48:17;12.00;95.00
22645;DHT22;11489;50.834;6.752;2023-04-22T06:50:43;12.10;94.90
22645;DHT22;11489;50.834;6.752;2023-04-22T06:53:09;12.20;94.90
22645;DHT22;11489;50.834;6.752;2023-04-22T06:55:35;12.30;94.80
22645;DHT22;11489;50.834;6.752;2023-04-22T06:58:00;12.40;94.70
22645;DHT22;11489;50.834;6.752;2023-04-22T07:00:26;12.50;94.60
22645;DHT22;11489;50.834;6.752;2023-04-22T07:02:52;12.60;94.50
22645;DHT22;11489;50.834;6.752;2023-04-22T07:05:18;12.70;94.60
22645;DHT22;11489;50.834;6.752;2023-04-22T07:07:44;12.80;94.60
22645;DHT22;11489;50.834;6.752;2023-04-22T07:10:11;12.90;94.70
22645;DHT22;11489;50.834;6.752;2023-04-22T07:12:39;13.00;94.70
22645;DHT22;11489;50.834;6.752;2023-04-22T07:15:05;13.10;94.70
22645;DHT22;11489;50.834;6.752;2023-04-22T07:17:31;13.20;94.70
22645;DHT22;11489;50.834;6.752;2023-04-22T07:19:56;13.40;94.70
22645;DHT22;11489;50.834;6.752;2023-04-22T07:22:22;13.50;94.60
22645;DHT22;11489;50.834;6.752;2023-04-22T07:24:48;13.60;94.50
22645;DHT22;11489;50.834;6.752;2023-04-22T07:27:16;13.70;94.40
22645;DHT22;11489;50.834;6.752;2023-04-22T07:29:42;13.80;94.30
22645;DHT22;11489;50.834;6.752;2023-04-22T07:32:08;14.00;94.30
22645;DHT22;11489;50.834;6.752;2023-04-22T07:34:34;14.10;94.20
22645;DHT22;11489;50.834;6.752;2023-04-22T07:36:59;14.20;94.20
22645;DHT22;11489;50.834;6.752;2023-04-22T07:39:25;14.30;94.20
22645;DHT22;11489;50.834;6.752;2023-04-22T07:41:51;14.40;94.30
22645;DHT22;11489;50.834;6.752;2023-04-22T07:44:18;14.60;94.30
22645;DHT22;11489;50.834;6.752;2023-04-22T07:46:46;14.70;94.50
22645;DHT22;11489;50.834;6.752;2023-04-22T07:49:12;14.90;94.20
22645;DHT22;11489;50.834;6.752;2023-04-22T07:51:39;15.10;94.20
22645;DHT22;11489;50.834;6.752;2023-04-22T07:54:06;15.20;94.10
22645;DHT22;11489;50.834;6.752;2023-04-22T07:56:32;15.40;93.90
22645;DHT22;11489;50.834;6.752;2023-04-22T07:58:58;15.50;93.80
22645;DHT22;11489;50.834;6.752;2023-04-22T08:01:26;15.70;93.60
22645;DHT22;11489;50.834;6.752;2023-04-22T08:03:52;15.90;93.40
22645;DHT22;11489;50.834;6.752;2023-04-22T08:06:17;16.10;93.60
22645;DHT22;11489;50.834;6.752;2023-04-22T08:08:43;16.30;93.40
22645;DHT22;11489;50.834;6.752;2023-04-22T08:11:09;16.50;93.30
22645;DHT22;11489;50.834;6.752;2023-04-22T08:13:34;16.60;93.10
22645;DHT22;11489;50.834;6.752;2023-04-22T08:16:00;16.80;93.00
22645;DHT22;11489;50.834;6.752;2023-04-22T08:18:29;17.00;92.80
22645;DHT22;11489;50.834;6.752;2023-04-22T08:20:55;17.20;92.80
22645;DHT22;11489;50.834;6.752;2023-04-22T08:23:21;17.40;92.50
22645;DHT22;11489;50.834;6.752;2023-04-22T08:25:47;17.60;92.40
22645;DHT22;11489;50.834;6.752;2023-04-22T08:28:13;17.80;92.30
22645;DHT22;11489;50.834;6.752;2023-04-22T08:30:39;17.90;91.50
22645;DHT22;11489;50.834;6.752;2023-04-22T08:33:04;18.10;91.50
22645;DHT22;11489;50.834;6.752;2023-04-22T08:35:33;18.20;91.40
22645;DHT22;11489;50.834;6.752;2023-04-22T08:37:59;18.30;91.20
22645;DHT22;11489;50.834;6.752;2023-04-22T08:40:26;18.40;91.10
22645;DHT22;11489;50.834;6.752;2023-04-22T08:42:52;18.60;90.60
22645;DHT22;11489;50.834;6.752;2023-04-22T08:45:18;18.70;90.30
22645;DHT22;11489;50.834;6.752;2023-04-22T08:47:47;18.70;89.90
22645;DHT22;11489;50.834;6.752;2023-04-22T08:50:13;18.80;89.00
22645;DHT22;11489;50.834;6.752;2023-04-22T08:52:41;18.80;88.40
22645;DHT22;11489;50.834;6.752;2023-04-22T08:55:07;18.90;87.80
22645;DHT22;11489;50.834;6.752;2023-04-22T08:57:35;18.90;88.70
22645;DHT22;11489;50.834;6.752;2023-04-22T09:00:02;19.00;89.10
22645;DHT22;11489;50.834;6.752;2023-04-22T09:02:36;19.10;89.50
22645;DHT22;11489;50.834;6.752;2023-04-22T09:05:04;19.20;87.60
22645;DHT22;11489;50.834;6.752;2023-04-22T09:07:31;19.40;89.10
22645;DHT22;11489;50.834;6.752;2023-04-22T09:09:57;19.50;89.50
22645;DHT22;11489;50.834;6.752;2023-04-22T09:12:29;19.70;88.70
22645;DHT22;11489;50.834;6.752;2023-04-22T09:14:55;19.90;86.20
22645;DHT22;11489;50.834;6.752;2023-04-22T09:17:34;20.10;86.80
22645;DHT22;11489;50.834;6.752;2023-04-22T09:20:05;20.30;83.40
22645;DHT22;11489;50.834;6.752;2023-04-22T09:22:48;20.40;86.80
22645;DHT22;11489;50.834;6.752;2023-04-22T09:25:24;20.50;82.40
22645;DHT22;11489;50.834;6.752;2023-04-22T09:27:52;20.70;80.90
22645;DHT22;11489;50.834;6.752;2023-04-22T09:30:29;20.80;84.40
22645;DHT22;11489;50.834;6.752;2023-04-22T09:32:59;20.90;82.60
22645;DHT22;11489;50.834;6.752;2023-04-22T09:35:30;21.00;83.60
22645;DHT22;11489;50.834;6.752;2023-04-22T09:37:58;21.20;84.60
22645;DHT22;11489;50.834;6.752;2023-04-22T09:40:24;21.40;84.00
22645;DHT22;11489;50.834;6.752;2023-04-22T09:42:52;21.50;84.40
22645;DHT22;11489;50.834;6.752;2023-04-22T09:48:08;21.80;79.40
22645;DHT22;11489;50.834;6.752;2023-04-22T09:50:36;22.00;80.40
22645;DHT22;11489;50.834;6.752;2023-04-22T09:53:07;22.10;81.50
22645;DHT22;11489;50.834;6.752;2023-04-22T09:55:44;22.20;80.20
22645;DHT22;11489;50.834;6.752;2023-04-22T09:58:15;22.30;80.20
22645;DHT22;11489;50.834;6.752;2023-04-22T10:00:53;22.30;78.20
22645;DHT22;11489;50.834;6.752;2023-04-22T10:03:19;22.30;79.60
22645;DHT22;11489;50.834;6.752;2023-04-22T10:05:48;22.30;79.40
22645;DHT22;11489;50.834;6.752;2023-04-22T10:08:15;22.20;78.50
22645;DHT22;11489;50.834;6.752;2023-04-22T10:10:41;22.10;78.30
22645;DHT22;11489;50.834;6.752;2023-04-22T10:13:07;22.10;78.20
22645;DHT22;11489;50.834;6.752;2023-04-22T10:15:51;22.10;78.80
22645;DHT22;11489;50.834;6.752;2023-04-22T10:18:23;22.10;73.60
22645;DHT22;11489;50.834;6.752;2023-04-22T10:20:51;22.10;79.70
22645;DHT22;11489;50.834;6.752;2023-04-22T10:23:20;22.20;78.90
22645;DHT22;11489;50.834;6.752;2023-04-22T10:25:47;22.30;77.50
22645;DHT22;11489;50.834;6.752;2023-04-22T10:28:15;22.40;77.40
22645;DHT22;11489;50.834;6.752;2023-04-22T10:30:44;22.40;77.60
22645;DHT22;11489;50.834;6.752;2023-04-22T10:36:15;22.50;72.70
22645;DHT22;11489;50.834;6.752;2023-04-22T10:41:27;22.60;73.40
22645;DHT22;11489;50.834;6.752;2023-04-22T10:43:58;22.60;73.90
22645;DHT22;11489;50.834;6.752;2023-04-22T10:46:54;22.60;74.80
22645;DHT22;11489;50.834;6.752;2023-04-22T10:49:20;22.70;74.20
22645;DHT22;11489;50.834;6.752;2023-04-22T10:51:55;22.70;77.00
22645;DHT22;11489;50.834;6.752;2023-04-22T10:57:10;22.90;74.70
22645;DHT22;11489;50.834;6.752;2023-04-22T10:59:52;22.90;70.50
22645;DHT22;11489;50.834;6.752;2023-04-22T11:02:19;22.90;70.00
22645;DHT22;11489;50.834;6.752;2023-04-22T11:04:46;22.90;75.10
22645;DHT22;11489;50.834;6.752;2023-04-22T11:09:48;22.90;74.50
22645;DHT22;11489;50.834;6.752;2023-04-22T11:12:41;22.80;74.50
22645;DHT22;11489;50.834;6.752;2023-04-22T11:15:17;22.90;69.00
22645;DHT22;11489;50.834;6.752;2023-04-22T11:17:46;22.90;70.30
22645;DHT22;11489;50.834;6.752;2023-04-22T11:20:13;22.80;73.80
22645;DHT22;11489;50.834;6.752;2023-04-22T11:22:46;22.80;73.90
22645;DHT22;11489;50.834;6.752;2023-04-22T11:25:13;22.70;73.90
22645;DHT22;11489;50.834;6.752;2023-04-22T11:27:40;22.70;74.90
22645;DHT22;11489;50.834;6.752;2023-04-22T11:30:09;22.80;74.70
22645;DHT22;11489;50.834;6.752;2023-04-22T11:32:37;22.80;74.20
22645;DHT22;11489;50.834;6.752;2023-04-22T11:35:05;22.80;74.60
22645;DHT22;11489;50.834;6.752;2023-04-22T11:40:05;22.90;72.30
22645;DHT22;11489;50.834;6.752;2023-04-22T11:42:31;22.90;74.60
22645;DHT22;11489;50.834;6.752;2023-04-22T11:44:56;22.90;74.10
22645;DHT22;11489;50.834;6.752;2023-04-22T11:47:22;22.80;74.40
22645;DHT22;11489;50.834;6.752;2023-04-22T11:49:57;22.80;74.70
22645;DHT22;11489;50.834;6.752;2023-04-22T11:52:24;22.80;72.40
22645;DHT22;11489;50.834;6.752;2023-04-22T11:54:50;22.80;75.00
22645;DHT22;11489;50.834;6.752;2023-04-22T11:57:16;22.80;74.70
22645;DHT22;11489;50.834;6.752;2023-04-22T11:59:43;22.80;75.00
22645;DHT22;11489;50.834;6.752;2023-04-22T12:02:09;22.90;74.70
22645;DHT22;11489;50.834;6.752;2023-04-22T12:04:38;22.90;74.90
22645;DHT22;11489;50.834;6.752;2023-04-22T12:07:04;22.90;74.30
22645;DHT22;11489;50.834;6.752;2023-04-22T12:09:30;22.80;74.90
22645;DHT22;11489;50.834;6.752;2023-04-22T12:11:56;22.80;74.50
22645;DHT22;11489;50.834;6.752;2023-04-22T12:14:31;22.80;73.60
22645;DHT22;11489;50.834;6.752;2023-04-22T12:16:56;22.70;72.10
22645;DHT22;11489;50.834;6.752;2023-04-22T12:19:25;22.60;73.70
22645;DHT22;11489;50.834;6.752;2023-04-22T12:21:55;22.50;72.10
22645;DHT22;11489;50.834;6.752;2023-04-22T12:24:26;22.40;71.60
22645;DHT22;11489;50.834;6.752;2023-04-22T12:26:53;22.30;71.70
22645;DHT22;11489;50.834;6.752;2023-04-22T12:29:32;22.20;73.60
22645;DHT22;11489;50.834;6.752;2023-04-22T12:31:59;22.10;70.40
22645;DHT22;11489;50.834;6.752;2023-04-22T12:34:25;22.00;74.00
22645;DHT22;11489;50.834;6.752;2023-04-22T12:36:50;21.90;73.70
22645;DHT22;11489;50.834;6.752;2023-04-22T12:39:16;21.80;73.90
22645;DHT22;11489;50.834;6.752;2023-04-22T12:41:43;21.80;74.10
22645;DHT22;11489;50.834;6.752;2023-04-22T12:44:08;21.70;74.50
22645;DHT22;11489;50.834;6.752;2023-04-22T12:46:34;21.60;74.10
22645;DHT22;11489;50.834;6.752;2023-04-22T12:49:09;21.50;74.20
22645;DHT22;11489;50.834;6.752;2023-04-22T12:51:34;21.40;74.30
22645;DHT22;11489;50.834;6.752;2023-04-22T12:54:00;21.30;74.50
22645;DHT22;11489;50.834;6.752;2023-04-22T12:56:26;21.10;74.80
22645;DHT22;11489;50.834;6.752;2023-04-22T12:58:51;21.10;75.00
22645;DHT22;11489;50.834;6.752;2023-04-22T13:01:17;21.00;75.40
22645;DHT22;11489;50.834;6.752;2023-04-22T13:03:42;20.90;75.60
22645;DHT22;11489;50.834;6.752;2023-04-22T13:06:08;20.80;75.50
22645;DHT22;11489;50.834;6.752;2023-04-22T13:08:34;20.70;75.20
22645;DHT22;11489;50.834;6.752;2023-04-22T13:10:59;20.60;75.10
22645;DHT22;11489;50.834;6.752;2023-04-22T13:13:25;20.50;75.00
22645;DHT22;11489;50.834;6.752;2023-04-22T13:15:51;20.40;75.20
22645;DHT22;11489;50.834;6.752;2023-04-22T13:18:18;20.20;75.10
22645;DHT22;11489;50.834;6.752;2023-04-22T13:20:44;20.10;75.30
22645;DHT22;11489;50.834;6.752;2023-04-22T13:23:10;20.00;75.40
22645;DHT22;11489;50.834;6.752;2023-04-22T13:25:37;19.90;75.60
22645;DHT22;11489;50.834;6.752;2023-04-22T13:28:03;19.80;75.90
22645;DHT22;11489;50.834;6.752;2023-04-22T13:30:28;19.70;76.20
22645;DHT22;11489;50.834;6.752;2023-04-22T13:32:54;19.60;76.20
22645;DHT22;11489;50.834;6.752;2023-04-22T13:35:20;19.50;76.30
22645;DHT22;11489;50.834;6.752;2023-04-22T13:37:45;19.50;76.70
22645;DHT22;11489;50.834;6.752;2023-04-22T13:40:11;19.30;76.90
22645;DHT22;11489;50.834;6.752;2023-04-22T13:42:37;19.30;77.10
22645;DHT22;11489;50.834;6.752;2023-04-22T13:45:03;19.20;77.20
22645;DHT22;11489;50.834;6.752;2023-04-22T13:47:28;19.10;77.40
22645;DHT22;11489;50.834;6.752;2023-04-22T13:49:54;19.00;77.70
22645;DHT22;11489;50.834;6.752;2023-04-22T13:52:20;19.00;77.90
22645;DHT22;11489;50.834;6.752;2023-04-22T13:54:46;19.00;78.40
22645;DHT22;11489;50.834;6.752;2023-04-22T13:57:11;18.90;78.60
22645;DHT22;11489;50.834;6.752;2023-04-22T13:59:37;18.90;78.90
22645;DHT22;11489;50.834;6.752;2023-04-22T14:02:03;18.90;79.10
22645;DHT22;11489;50.834;6.752;2023-04-22T14:04:28;18.90;79.50
22645;DHT22;11489;50.834;6.752;2023-04-22T14:06:54;18.80;79.60
22645;DHT22;11489;50.834;6.752;2023-04-22T14:09:20;18.80;79.80
22645;DHT22;11489;50.834;6.752;2023-04-22T14:11:46;18.80;79.90
22645;DHT22;11489;50.834;6.752;2023-04-22T14:14:12;18.80;79.90
22645;DHT22;11489;50.834;6.752;2023-04-22T14:16:37;18.80;80.00
22645;DHT22;11489;50.834;6.752;2023-04-22T14:19:03;18.70;80.10
22645;DHT22;11489;50.834;6.752;2023-04-22T14:21:30;18.70;80.20
22645;DHT22;11489;50.834;6.752;2023-04-22T14:23:56;18.70;80.10
22645;DHT22;11489;50.834;6.752;2023-04-22T14:26:22;18.60;80.00
22645;DHT22;11489;50.834;6.752;2023-04-22T14:28:47;18.60;80.00
22645;DHT22;11489;50.834;6.752;2023-04-22T14:31:13;18.50;79.90
22645;DHT22;11489;50.834;6.752;2023-04-22T14:33:39;18.50;80.00
22645;DHT22;11489;50.834;6.752;2023-04-22T14:36:05;18.50;80.00
22645;DHT22;11489;50.834;6.752;2023-04-22T14:38:31;18.50;80.10
22645;DHT22;11489;50.834;6.752;2023-04-22T14:40:57;18.40;80.00
22645;DHT22;11489;50.834;6.752;2023-04-22T14:43:23;18.40;79.90
22645;DHT22;11489;50.834;6.752;2023-04-22T14:45:48;18.20;79.90
22645;DHT22;11489;50.834;6.752;2023-04-22T14:48:14;18.20;80.10
22645;DHT22;11489;50.834;6.752;2023-04-22T14:50:41;17.90;79.30
22645;DHT22;11489;50.834;6.752;2023-04-22T14:53:07;17.90;79.40
22645;DHT22;11489;50.834;6.752;2023-04-22T14:55:33;17.80;79.50
22645;DHT22;11489;50.834;6.752;2023-04-22T14:58:00;17.70;79.80
22645;DHT22;11489;50.834;6.752;2023-04-22T15:00:25;17.70;80.30
22645;DHT22;11489;50.834;6.752;2023-04-22T15:02:53;17.60;80.50
22645;DHT22;11489;50.834;6.752;2023-04-22T15:05:19;17.50;80.80
22645;DHT22;11489;50.834;6.752;2023-04-22T15:07:46;17.40;81.10
22645;DHT22;11489;50.834;6.752;2023-04-22T15:10:12;17.40;81.50
22645;DHT22;11489;50.834;6.752;2023-04-22T15:12:39;17.40;81.80
22645;DHT22;11489;50.834;6.752;2023-04-22T15:15:05;17.30;82.00
22645;DHT22;11489;50.834;6.752;2023-04-22T15:17:30;17.30;82.30
22645;DHT22;11489;50.834;6.752;2023-04-22T15:19:58;17.30;82.60
22645;DHT22;11489;50.834;6.752;2023-04-22T15:22:24;17.30;82.80
22645;DHT22;11489;50.834;6.752;2023-04-22T15:24:50;17.30;82.90
22645;DHT22;11489;50.834;6.752;2023-04-22T15:27:16;17.30;83.10
22645;DHT22;11489;50.834;6.752;2023-04-22T15:29:42;17.30;83.10
22645;DHT22;11489;50.834;6.752;2023-04-22T15:32:11;17.30;83.20
22645;DHT22;11489;50.834;6.752;2023-04-22T15:34:37;17.30;83.20
22645;DHT22;11489;50.834;6.752;2023-04-22T15:37:02;17.30;83.40
22645;DHT22;11489;50.834;6.752;2023-04-22T15:39:28;17.20;83.40
22645;DHT22;11489;50.834;6.752;2023-04-22T15:41:54;17.30;83.50
22645;DHT22;11489;50.834;6.752;2023-04-22T15:44:20;17.20;83.40
22645;DHT22;11489;50.834;6.752;2023-04-22T15:46:45;17.20;83.40
22645;DHT22;11489;50.834;6.752;2023-04-22T15:49:12;17.20;83.60
22645;DHT22;11489;50.834;6.752;2023-04-22T15:51:39;17.10;83.60
22645;DHT22;11489;50.834;6.752;2023-04-22T15:54:05;17.10;83.70